sensor_id;sensor_type;location;lat;lon;timestamp;P1;durP1;ratioP1;P2;durP2;ratioP2
26375;SDS011;30544;42.196;24.336;2023-05-07T00:01:09;13.07;;;7.35;;
26375;SDS011;30544;42.196;24.336;2023-05-07T00:03:36;13.57;;;7.00;;
26375;SDS011;30544;42.196;24.336;2023-05-07T00:06:03;18.75;;;7.28;;
26375;SDS011;30544;42.196;24.336;2023-05-07T00:08:29;13.57;;;7.22;;
26375;SDS011;30544;42.196;24.336;2023-05-07T00:10:56;14.60;;;6.38;;
26375;SDS011;30544;42.196;24.336;2023-05-07T00:13:23;9.70;;;6.70;;
26375;SDS011;30544;42.196;24.336;2023-05-07T00:15:50;13.63;;;6.85;;
26375;SDS011;30544;42.196;24.336;2023-05-07T00:18:16;11.13;;;7.43;;
26375;SDS011;30544;42.196;24.336;2023-05-07T00:20:46;13.13;;;7.18;;
26375;SDS011;30544;42.196;24.336;2023-05-07T00:23:12;13.18;;;7.97;;
26375;SDS011;30544;42.196;24.336;2023-05-07T00:25:39;14.38;;;8.68;;
26375;SDS011;30544;42.196;24.336;2023-05-07T00:28:05;10.15;;;7.82;;
26375;SDS011;30544;42.196;24.336;2023-05-07T00:30:33;13.98;;;8.82;;
26375;SDS011;30544;42.196;24.336;2023-05-07T00:32:59;14.05;;;8.45;;
26375;SDS011;30544;42.196;24.336;2023-05-07T00:35:27;14.40;;;8.63;;
26375;SDS011;30544;42.196;24.336;2023-05-07T00:37:54;13.55;;;8.05;;
26375;SDS011;30544;42.196;24.336;2023-05-07T00:40:21;12.80;;;8.15;;
26375;SDS011;30544;42.196;24.336;2023-05-07T00:42:47;12.48;;;7.78;;
26375;SDS011;30544;42.196;24.336;2023-05-07T00:45:14;13.15;;;8.75;;
26375;SDS011;30544;42.196;24.336;2023-05-07T00:47:42;15.27;;;8.60;;
26375;SDS011;30544;42.196;24.336;2023-05-07T00:50:09;16.77;;;8.18;;
26375;SDS011;30544;42.196;24.336;2023-05-07T00:52:37;15.27;;;8.48;;
26375;SDS011;30544;42.196;24.336;2023-05-07T00:55:04;13.85;;;7.68;;
26375;SDS011;30544;42.196;24.336;2023-05-07T00:57:32;11.35;;;8.55;;
26375;SDS011;30544;42.196;24.336;2023-05-07T00:59:59;11.52;;;8.57;;
26375;SDS011;30544;42.196;24.336;2023-05-07T01:02:25;13.18;;;8.10;;
26375;SDS011;30544;42.196;24.336;2023-05-07T01:04:53;12.52;;;8.45;;
26375;SDS011;30544;42.196;24.336;2023-05-07T01:07:21;12.52;;;7.60;;
26375;SDS011;30544;42.196;24.336;2023-05-07T01:09:47;14.50;;;8.55;;
26375;SDS011;30544;42.196;24.336;2023-05-07T01:12:14;12.90;;;8.68;;
26375;SDS011;30544;42.196;24.336;2023-05-07T01:14:41;11.80;;;8.15;;
26375;SDS011;30544;42.196;24.336;2023-05-07T01:17:07;11.60;;;7.90;;
26375;SDS011;30544;42.196;24.336;2023-05-07T01:19:34;16.50;;;7.55;;
26375;SDS011;30544;42.196;24.336;2023-05-07T01:22:03;14.05;;;7.40;;
26375;SDS011;30544;42.196;24.336;2023-05-07T01:24:32;12.85;;;7.22;;
26375;SDS011;30544;42.196;24.336;2023-05-07T01:26:59;11.90;;;7.05;;
26375;SDS011;30544;42.196;24.336;2023-05-07T01:29:26;15.50;;;7.30;;
26375;SDS011;30544;42.196;24.336;2023-05-07T01:31:53;17.23;;;7.32;;
26375;SDS011;30544;42.196;24.336;2023-05-07T01:34:19;9.60;;;7.40;;
26375;SDS011;30544;42.196;24.336;2023-05-07T01:36:47;13.20;;;8.00;;
26375;SDS011;30544;42.196;24.336;2023-05-07T01:39:14;14.40;;;8.93;;
26375;SDS011;30544;42.196;24.336;2023-05-07T01:41:42;13.75;;;9.15;;
26375;SDS011;30544;42.196;24.336;2023-05-07T01:44:09;13.10;;;9.60;;
26375;SDS011;30544;42.196;24.336;2023-05-07T01:46:36;13.38;;;9.63;;
26375;SDS011;30544;42.196;24.336;2023-05-07T01:49:02;15.35;;;10.18;;
26375;SDS011;30544;42.196;24.336;2023-05-07T01:51:29;12.05;;;9.95;;
26375;SDS011;30544;42.196;24.336;2023-05-07T01:53:56;15.40;;;10.13;;
26375;SDS011;30544;42.196;24.336;2023-05-07T01:56:24;12.23;;;9.55;;
26375;SDS011;30544;42.196;24.336;2023-05-07T01:58:51;17.23;;;10.68;;
26375;SDS011;30544;42.196;24.336;2023-05-07T02:01:18;20.35;;;10.88;;
26375;SDS011;30544;42.196;24.336;2023-05-07T02:03:44;19.25;;;11.50;;
26375;SDS011;30544;42.196;24.336;2023-05-07T02:06:11;15.50;;;10.25;;
26375;SDS011;30544;42.196;24.336;2023-05-07T02:08:37;14.60;;;10.55;;
26375;SDS011;30544;42.196;24.336;2023-05-07T02:11:04;18.25;;;11.65;;
26375;SDS011;30544;42.196;24.336;2023-05-07T02:13:31;14.73;;;10.50;;
26375;SDS011;30544;42.196;24.336;2023-05-07T02:15:59;20.05;;;11.02;;
26375;SDS011;30544;42.196;24.336;2023-05-07T02:18:25;15.40;;;11.27;;
26375;SDS011;30544;42.196;24.336;2023-05-07T02:20:52;19.23;;;11.80;;
26375;SDS011;30544;42.196;24.336;2023-05-07T02:23:18;26.08;;;15.20;;
26375;SDS011;30544;42.196;24.336;2023-05-07T02:25:45;19.75;;;13.35;;
26375;SDS011;30544;42.196;24.336;2023-05-07T02:28:11;17.63;;;11.93;;
26375;SDS011;30544;42.196;24.336;2023-05-07T02:30:38;16.83;;;11.10;;
26375;SDS011;30544;42.196;24.336;2023-05-07T02:33:06;18.63;;;11.52;;
26375;SDS011;30544;42.196;24.336;2023-05-07T02:35:33;20.50;;;10.50;;
26375;SDS011;30544;42.196;24.336;2023-05-07T02:38:00;18.52;;;10.85;;
26375;SDS011;30544;42.196;24.336;2023-05-07T02:40:26;17.38;;;10.48;;
26375;SDS011;30544;42.196;24.336;2023-05-07T02:42:53;14.95;;;10.13;;
26375;SDS011;30544;42.196;24.336;2023-05-07T02:45:19;15.95;;;10.43;;
26375;SDS011;30544;42.196;24.336;2023-05-07T02:47:46;17.45;;;11.73;;
26375;SDS011;30544;42.196;24.336;2023-05-07T02:50:14;18.50;;;10.90;;
26375;SDS011;30544;42.196;24.336;2023-05-07T02:52:40;16.25;;;10.93;;
26375;SDS011;30544;42.196;24.336;2023-05-07T02:55:07;19.85;;;10.98;;
26375;SDS011;30544;42.196;24.336;2023-05-07T02:57:34;24.13;;;11.98;;
26375;SDS011;30544;42.196;24.336;2023-05-07T03:00:09;24.17;;;12.52;;
26375;SDS011;30544;42.196;24.336;2023-05-07T03:02:36;18.73;;;12.07;;
26375;SDS011;30544;42.196;24.336;2023-05-07T03:05:02;16.40;;;11.45;;
26375;SDS011;30544;42.196;24.336;2023-05-07T03:07:31;17.40;;;12.45;;
26375;SDS011;30544;42.196;24.336;2023-05-07T03:09:57;15.57;;;10.77;;
26375;SDS011;30544;42.196;24.336;2023-05-07T03:12:23;23.30;;;11.63;;
26375;SDS011;30544;42.196;24.336;2023-05-07T03:14:50;20.00;;;11.13;;
26375;SDS011;30544;42.196;24.336;2023-05-07T03:17:16;15.13;;;10.75;;
26375;SDS011;30544;42.196;24.336;2023-05-07T03:19:43;19.35;;;11.23;;
26375;SDS011;30544;42.196;24.336;2023-05-07T03:22:09;22.10;;;11.65;;
26375;SDS011;30544;42.196;24.336;2023-05-07T03:24:37;16.88;;;11.13;;
26375;SDS011;30544;42.196;24.336;2023-05-07T03:27:04;13.90;;;11.27;;
26375;SDS011;30544;42.196;24.336;2023-05-07T03:29:30;18.05;;;11.63;;
26375;SDS011;30544;42.196;24.336;2023-05-07T03:31:57;15.77;;;10.40;;
26375;SDS011;30544;42.196;24.336;2023-05-07T03:34:23;16.85;;;10.60;;
26375;SDS011;30544;42.196;24.336;2023-05-07T03:36:49;16.95;;;11.10;;
26375;SDS011;30544;42.196;24.336;2023-05-07T03:39:16;20.67;;;10.95;;
26375;SDS011;30544;42.196;24.336;2023-05-07T03:41:44;16.48;;;11.25;;
26375;SDS011;30544;42.196;24.336;2023-05-07T03:44:10;17.63;;;10.85;;
26375;SDS011;30544;42.196;24.336;2023-05-07T03:46:37;20.85;;;11.02;;
26375;SDS011;30544;42.196;24.336;2023-05-07T03:49:04;15.48;;;10.77;;
26375;SDS011;30544;42.196;24.336;2023-05-07T03:51:30;13.50;;;9.73;;
26375;SDS011;30544;42.196;24.336;2023-05-07T03:53:57;14.27;;;11.05;;
26375;SDS011;30544;42.196;24.336;2023-05-07T03:56:23;12.27;;;9.43;;
26375;SDS011;30544;42.196;24.336;2023-05-07T03:58:52;18.95;;;9.98;;
26375;SDS011;30544;42.196;24.336;2023-05-07T04:01:19;15.73;;;9.95;;
26375;SDS011;30544;42.196;24.336;2023-05-07T04:03:45;15.05;;;9.77;;
26375;SDS011;30544;42.196;24.336;2023-05-07T04:06:12;12.48;;;9.18;;
26375;SDS011;30544;42.196;24.336;2023-05-07T04:08:38;15.77;;;10.30;;
26375;SDS011;30544;42.196;24.336;2023-05-07T04:11:05;23.45;;;13.98;;
26375;SDS011;30544;42.196;24.336;2023-05-07T04:13:31;17.67;;;10.20;;
26375;SDS011;30544;42.196;24.336;2023-05-07T04:16:00;17.70;;;9.80;;
26375;SDS011;30544;42.196;24.336;2023-05-07T04:18:27;16.23;;;10.00;;
26375;SDS011;30544;42.196;24.336;2023-05-07T04:20:53;17.35;;;9.95;;
26375;SDS011;30544;42.196;24.336;2023-05-07T04:23:20;16.92;;;9.00;;
26375;SDS011;30544;42.196;24.336;2023-05-07T04:25:46;14.00;;;8.52;;
26375;SDS011;30544;42.196;24.336;2023-05-07T04:28:13;14.60;;;8.55;;
26375;SDS011;30544;42.196;24.336;2023-05-07T04:30:39;14.43;;;8.43;;
26375;SDS011;30544;42.196;24.336;2023-05-07T04:33:07;17.25;;;8.38;;
26375;SDS011;30544;42.196;24.336;2023-05-07T04:35:34;17.17;;;8.65;;
26375;SDS011;30544;42.196;24.336;2023-05-07T04:38:01;12.30;;;8.35;;
26375;SDS011;30544;42.196;24.336;2023-05-07T04:40:27;12.60;;;8.30;;
26375;SDS011;30544;42.196;24.336;2023-05-07T04:42:54;12.65;;;8.85;;
26375;SDS011;30544;42.196;24.336;2023-05-07T04:45:20;18.45;;;8.85;;
26375;SDS011;30544;42.196;24.336;2023-05-07T04:47:47;16.20;;;9.38;;
26375;SDS011;30544;42.196;24.336;2023-05-07T04:50:15;17.25;;;8.98;;
26375;SDS011;30544;42.196;24.336;2023-05-07T04:52:42;13.23;;;8.82;;
26375;SDS011;30544;42.196;24.336;2023-05-07T04:55:09;12.68;;;8.38;;
26375;SDS011;30544;42.196;24.336;2023-05-07T04:57:35;13.75;;;8.65;;
26375;SDS011;30544;42.196;24.336;2023-05-07T05:00:03;14.57;;;8.15;;
26375;SDS011;30544;42.196;24.336;2023-05-07T05:02:31;14.77;;;8.43;;
26375;SDS011;30544;42.196;24.336;2023-05-07T05:04:57;12.43;;;8.65;;
26375;SDS011;30544;42.196;24.336;2023-05-07T05:07:25;12.93;;;8.45;;
26375;SDS011;30544;42.196;24.336;2023-05-07T05:09:52;11.20;;;8.40;;
26375;SDS011;30544;42.196;24.336;2023-05-07T05:12:18;17.00;;;8.68;;
26375;SDS011;30544;42.196;24.336;2023-05-07T05:14:44;15.02;;;8.65;;
26375;SDS011;30544;42.196;24.336;2023-05-07T05:17:11;12.10;;;8.60;;
26375;SDS011;30544;42.196;24.336;2023-05-07T05:19:37;14.45;;;8.82;;
26375;SDS011;30544;42.196;24.336;2023-05-07T05:22:04;19.75;;;9.82;;
26375;SDS011;30544;42.196;24.336;2023-05-07T05:24:32;11.43;;;9.35;;
26375;SDS011;30544;42.196;24.336;2023-05-07T05:26:58;14.70;;;9.50;;
26375;SDS011;30544;42.196;24.336;2023-05-07T05:29:26;13.32;;;10.05;;
26375;SDS011;30544;42.196;24.336;2023-05-07T05:31:52;16.98;;;10.07;;
26375;SDS011;30544;42.196;24.336;2023-05-07T05:34:19;14.35;;;9.45;;
26375;SDS011;30544;42.196;24.336;2023-05-07T05:36:46;16.73;;;10.13;;
26375;SDS011;30544;42.196;24.336;2023-05-07T05:39:13;19.70;;;10.35;;
26375;SDS011;30544;42.196;24.336;2023-05-07T05:41:41;13.70;;;10.15;;
26375;SDS011;30544;42.196;24.336;2023-05-07T05:44:07;19.55;;;10.18;;
26375;SDS011;30544;42.196;24.336;2023-05-07T05:46:34;13.65;;;10.55;;
26375;SDS011;30544;42.196;24.336;2023-05-07T05:49:01;12.98;;;10.02;;
26375;SDS011;30544;42.196;24.336;2023-05-07T05:51:27;17.45;;;10.15;;
26375;SDS011;30544;42.196;24.336;2023-05-07T05:53:54;13.65;;;9.70;;
26375;SDS011;30544;42.196;24.336;2023-05-07T05:56:20;17.58;;;10.63;;
26375;SDS011;30544;42.196;24.336;2023-05-07T05:58:48;15.57;;;8.57;;
26375;SDS011;30544;42.196;24.336;2023-05-07T06:01:14;17.02;;;9.90;;
26375;SDS011;30544;42.196;24.336;2023-05-07T06:03:41;15.50;;;9.77;;
26375;SDS011;30544;42.196;24.336;2023-05-07T06:06:07;12.70;;;9.25;;
26375;SDS011;30544;42.196;24.336;2023-05-07T06:08:34;18.23;;;9.15;;
26375;SDS011;30544;42.196;24.336;2023-05-07T06:11:01;19.33;;;8.82;;
26375;SDS011;30544;42.196;24.336;2023-05-07T06:13:27;12.05;;;8.65;;
26375;SDS011;30544;42.196;24.336;2023-05-07T06:15:55;11.30;;;6.50;;
26375;SDS011;30544;42.196;24.336;2023-05-07T06:18:22;10.93;;;6.80;;
26375;SDS011;30544;42.196;24.336;2023-05-07T06:20:48;12.50;;;7.38;;
26375;SDS011;30544;42.196;24.336;2023-05-07T06:23:15;14.35;;;7.32;;
26375;SDS011;30544;42.196;24.336;2023-05-07T06:25:41;10.73;;;6.50;;
26375;SDS011;30544;42.196;24.336;2023-05-07T06:28:08;12.60;;;7.00;;
26375;SDS011;30544;42.196;24.336;2023-05-07T06:30:36;14.55;;;6.97;;
26375;SDS011;30544;42.196;24.336;2023-05-07T06:33:04;12.23;;;6.40;;
26375;SDS011;30544;42.196;24.336;2023-05-07T06:35:30;8.95;;;5.85;;
26375;SDS011;30544;42.196;24.336;2023-05-07T06:37:57;8.38;;;6.40;;
26375;SDS011;30544;42.196;24.336;2023-05-07T06:40:23;12.50;;;5.97;;
26375;SDS011;30544;42.196;24.336;2023-05-07T06:42:50;13.52;;;6.47;;
26375;SDS011;30544;42.196;24.336;2023-05-07T06:45:16;12.02;;;6.30;;
26375;SDS011;30544;42.196;24.336;2023-05-07T06:47:43;16.38;;;6.53;;
26375;SDS011;30544;42.196;24.336;2023-05-07T06:50:11;11.20;;;6.85;;
26375;SDS011;30544;42.196;24.336;2023-05-07T06:52:37;10.52;;;6.60;;
26375;SDS011;30544;42.196;24.336;2023-05-07T06:55:04;10.30;;;6.90;;
26375;SDS011;30544;42.196;24.336;2023-05-07T06:57:31;17.27;;;9.65;;
26375;SDS011;30544;42.196;24.336;2023-05-07T06:59:57;10.20;;;6.22;;
26375;SDS011;30544;42.196;24.336;2023-05-07T07:02:24;10.32;;;6.45;;
26375;SDS011;30544;42.196;24.336;2023-05-07T07:04:50;13.55;;;6.10;;
26375;SDS011;30544;42.196;24.336;2023-05-07T07:07:18;8.45;;;5.47;;
26375;SDS011;30544;42.196;24.336;2023-05-07T07:09:45;10.63;;;5.55;;
26375;SDS011;30544;42.196;24.336;2023-05-07T07:12:11;12.48;;;6.35;;
26375;SDS011;30544;42.196;24.336;2023-05-07T07:14:38;10.15;;;5.63;;
26375;SDS011;30544;42.196;24.336;2023-05-07T07:17:04;12.65;;;6.10;;
26375;SDS011;30544;42.196;24.336;2023-05-07T07:19:31;9.20;;;5.80;;
26375;SDS011;30544;42.196;24.336;2023-05-07T07:21:57;9.07;;;6.28;;
26375;SDS011;30544;42.196;24.336;2023-05-07T07:24:25;12.90;;;6.00;;
26375;SDS011;30544;42.196;24.336;2023-05-07T07:26:52;9.23;;;6.10;;
26375;SDS011;30544;42.196;24.336;2023-05-07T07:29:20;10.30;;;6.35;;
26375;SDS011;30544;42.196;24.336;2023-05-07T07:31:47;15.98;;;10.10;;
26375;SDS011;30544;42.196;24.336;2023-05-07T07:34:14;10.77;;;6.20;;
26375;SDS011;30544;42.196;24.336;2023-05-07T07:36:40;11.30;;;6.95;;
26375;SDS011;30544;42.196;24.336;2023-05-07T07:39:07;11.55;;;6.05;;
26375;SDS011;30544;42.196;24.336;2023-05-07T07:41:35;10.90;;;6.28;;
26375;SDS011;30544;42.196;24.336;2023-05-07T07:44:02;10.82;;;6.25;;
26375;SDS011;30544;42.196;24.336;2023-05-07T07:46:28;11.32;;;6.78;;
26375;SDS011;30544;42.196;24.336;2023-05-07T07:48:55;10.40;;;6.30;;
26375;SDS011;30544;42.196;24.336;2023-05-07T07:51:24;13.43;;;6.13;;
26375;SDS011;30544;42.196;24.336;2023-05-07T07:53:51;10.63;;;5.88;;
26375;SDS011;30544;42.196;24.336;2023-05-07T07:56:18;11.77;;;7.00;;
26375;SDS011;30544;42.196;24.336;2023-05-07T07:58:46;13.25;;;6.13;;
26375;SDS011;30544;42.196;24.336;2023-05-07T08:01:12;8.82;;;5.85;;
26375;SDS011;30544;42.196;24.336;2023-05-07T08:03:39;8.50;;;5.20;;
26375;SDS011;30544;42.196;24.336;2023-05-07T08:06:05;12.73;;;5.25;;
26375;SDS011;30544;42.196;24.336;2023-05-07T08:08:32;19.65;;;5.72;;
26375;SDS011;30544;42.196;24.336;2023-05-07T08:10:59;9.85;;;5.60;;
26375;SDS011;30544;42.196;24.336;2023-05-07T08:13:25;61.10;;;25.20;;
26375;SDS011;30544;42.196;24.336;2023-05-07T08:15:53;13.50;;;5.38;;
26375;SDS011;30544;42.196;24.336;2023-05-07T08:18:20;8.40;;;4.88;;
26375;SDS011;30544;42.196;24.336;2023-05-07T08:20:48;8.73;;;5.57;;
26375;SDS011;30544;42.196;24.336;2023-05-07T08:23:14;14.88;;;5.32;;
26375;SDS011;30544;42.196;24.336;2023-05-07T08:25:41;7.18;;;5.10;;
26375;SDS011;30544;42.196;24.336;2023-05-07T08:28:08;8.65;;;5.20;;
26375;SDS011;30544;42.196;24.336;2023-05-07T08:30:34;8.20;;;4.82;;
26375;SDS011;30544;42.196;24.336;2023-05-07T08:33:02;6.82;;;4.95;;
26375;SDS011;30544;42.196;24.336;2023-05-07T08:35:29;27.80;;;5.20;;
26375;SDS011;30544;42.196;24.336;2023-05-07T08:37:55;11.15;;;5.15;;
26375;SDS011;30544;42.196;24.336;2023-05-07T08:40:22;6.85;;;4.43;;
26375;SDS011;30544;42.196;24.336;2023-05-07T08:42:52;9.55;;;4.85;;
26375;SDS011;30544;42.196;24.336;2023-05-07T08:45:19;8.90;;;4.63;;
26375;SDS011;30544;42.196;24.336;2023-05-07T08:47:46;9.43;;;4.25;;
26375;SDS011;30544;42.196;24.336;2023-05-07T08:50:14;10.65;;;5.07;;
26375;SDS011;30544;42.196;24.336;2023-05-07T08:52:41;7.28;;;4.55;;
26375;SDS011;30544;42.196;24.336;2023-05-07T08:55:08;8.63;;;5.60;;
26375;SDS011;30544;42.196;24.336;2023-05-07T08:57:35;12.90;;;5.43;;
26375;SDS011;30544;42.196;24.336;2023-05-07T09:00:02;13.60;;;5.55;;
26375;SDS011;30544;42.196;24.336;2023-05-07T09:02:29;13.30;;;4.40;;
26375;SDS011;30544;42.196;24.336;2023-05-07T09:04:56;7.88;;;5.00;;
26375;SDS011;30544;42.196;24.336;2023-05-07T09:07:24;9.07;;;4.93;;
26375;SDS011;30544;42.196;24.336;2023-05-07T09:09:51;6.68;;;4.30;;
26375;SDS011;30544;42.196;24.336;2023-05-07T09:12:17;12.07;;;4.88;;
26375;SDS011;30544;42.196;24.336;2023-05-07T09:14:45;11.73;;;4.60;;
26375;SDS011;30544;42.196;24.336;2023-05-07T09:17:12;8.10;;;4.50;;
26375;SDS011;30544;42.196;24.336;2023-05-07T09:19:38;12.27;;;5.18;;
26375;SDS011;30544;42.196;24.336;2023-05-07T09:22:05;10.27;;;4.90;;
26375;SDS011;30544;42.196;24.336;2023-05-07T09:24:34;10.35;;;4.57;;
26375;SDS011;30544;42.196;24.336;2023-05-07T09:27:02;7.28;;;4.72;;
26375;SDS011;30544;42.196;24.336;2023-05-07T09:29:29;11.43;;;5.45;;
26375;SDS011;30544;42.196;24.336;2023-05-07T09:32:00;13.02;;;5.25;;
26375;SDS011;30544;42.196;24.336;2023-05-07T09:34:26;9.30;;;5.47;;
26375;SDS011;30544;42.196;24.336;2023-05-07T09:36:53;5.60;;;3.92;;
26375;SDS011;30544;42.196;24.336;2023-05-07T09:39:19;10.50;;;4.82;;
26375;SDS011;30544;42.196;24.336;2023-05-07T09:41:47;12.05;;;5.03;;
26375;SDS011;30544;42.196;24.336;2023-05-07T09:44:16;8.45;;;4.65;;
26375;SDS011;30544;42.196;24.336;2023-05-07T09:46:43;8.57;;;4.32;;
26375;SDS011;30544;42.196;24.336;2023-05-07T09:49:11;12.73;;;4.40;;
26375;SDS011;30544;42.196;24.336;2023-05-07T09:51:39;9.02;;;3.75;;
26375;SDS011;30544;42.196;24.336;2023-05-07T09:54:07;8.10;;;4.40;;
26375;SDS011;30544;42.196;24.336;2023-05-07T09:56:34;9.82;;;3.78;;
26375;SDS011;30544;42.196;24.336;2023-05-07T09:59:04;9.20;;;4.18;;
26375;SDS011;30544;42.196;24.336;2023-05-07T10:01:31;17.17;;;5.75;;
26375;SDS011;30544;42.196;24.336;2023-05-07T10:04:01;11.57;;;7.35;;
26375;SDS011;30544;42.196;24.336;2023-05-07T10:06:28;11.10;;;4.10;;
26375;SDS011;30544;42.196;24.336;2023-05-07T10:08:55;8.75;;;3.90;;
26375;SDS011;30544;42.196;24.336;2023-05-07T10:11:22;8.40;;;4.10;;
26375;SDS011;30544;42.196;24.336;2023-05-07T10:13:49;12.02;;;3.58;;
26375;SDS011;30544;42.196;24.336;2023-05-07T10:16:17;12.05;;;4.30;;
26375;SDS011;30544;42.196;24.336;2023-05-07T10:18:44;12.18;;;4.45;;
26375;SDS011;30544;42.196;24.336;2023-05-07T10:21:12;7.32;;;4.50;;
26375;SDS011;30544;42.196;24.336;2023-05-07T10:23:40;8.35;;;4.80;;
26375;SDS011;30544;42.196;24.336;2023-05-07T10:26:07;5.68;;;4.10;;
26375;SDS011;30544;42.196;24.336;2023-05-07T10:28:35;6.95;;;3.75;;
26375;SDS011;30544;42.196;24.336;2023-05-07T10:31:13;7.22;;;4.60;;
26375;SDS011;30544;42.196;24.336;2023-05-07T10:33:42;14.20;;;7.32;;
26375;SDS011;30544;42.196;24.336;2023-05-07T10:36:11;13.45;;;4.78;;
26375;SDS011;30544;42.196;24.336;2023-05-07T10:38:37;8.48;;;4.50;;
26375;SDS011;30544;42.196;24.336;2023-05-07T10:41:05;6.07;;;3.97;;
26375;SDS011;30544;42.196;24.336;2023-05-07T10:43:39;6.45;;;4.03;;
26375;SDS011;30544;42.196;24.336;2023-05-07T10:46:09;6.27;;;4.10;;
26375;SDS011;30544;42.196;24.336;2023-05-07T10:48:38;15.63;;;4.25;;
26375;SDS011;30544;42.196;24.336;2023-05-07T10:51:26;5.63;;;4.07;;
26375;SDS011;30544;42.196;24.336;2023-05-07T10:56:34;6.55;;;4.35;;
26375;SDS011;30544;42.196;24.336;2023-05-07T11:01:52;6.63;;;3.70;;
26375;SDS011;30544;42.196;24.336;2023-05-07T11:04:19;7.15;;;4.32;;
26375;SDS011;30544;42.196;24.336;2023-05-07T11:12:13;7.97;;;3.60;;
26375;SDS011;30544;42.196;24.336;2023-05-07T11:14:43;4.13;;;3.15;;
26375;SDS011;30544;42.196;24.336;2023-05-07T11:17:10;9.13;;;3.80;;
26375;SDS011;30544;42.196;24.336;2023-05-07T11:19:47;4.80;;;3.33;;
26375;SDS011;30544;42.196;24.336;2023-05-07T11:24:55;5.72;;;3.35;;
26375;SDS011;30544;42.196;24.336;2023-05-07T11:27:24;8.23;;;3.60;;
26375;SDS011;30544;42.196;24.336;2023-05-07T11:29:50;7.75;;;3.50;;
26375;SDS011;30544;42.196;24.336;2023-05-07T11:32:21;4.13;;;3.03;;
26375;SDS011;30544;42.196;24.336;2023-05-07T11:34:50;7.82;;;3.17;;
26375;SDS011;30544;42.196;24.336;2023-05-07T11:37:17;6.85;;;3.50;;
26375;SDS011;30544;42.196;24.336;2023-05-07T11:39:44;6.25;;;3.45;;
26375;SDS011;30544;42.196;24.336;2023-05-07T11:44:53;5.82;;;3.55;;
26375;SDS011;30544;42.196;24.336;2023-05-07T11:47:20;4.32;;;2.88;;
26375;SDS011;30544;42.196;24.336;2023-05-07T11:49:47;10.10;;;3.50;;
26375;SDS011;30544;42.196;24.336;2023-05-07T11:52:14;6.75;;;3.20;;
26375;SDS011;30544;42.196;24.336;2023-05-07T11:54:41;8.07;;;3.42;;
26375;SDS011;30544;42.196;24.336;2023-05-07T11:57:10;6.57;;;3.00;;
26375;SDS011;30544;42.196;24.336;2023-05-07T11:59:40;4.95;;;3.58;;
26375;SDS011;30544;42.196;24.336;2023-05-07T12:02:08;9.05;;;3.30;;
26375;SDS011;30544;42.196;24.336;2023-05-07T12:04:35;5.80;;;3.33;;
26375;SDS011;30544;42.196;24.336;2023-05-07T12:07:01;4.78;;;3.05;;
26375;SDS011;30544;42.196;24.336;2023-05-07T12:09:28;6.50;;;3.15;;
26375;SDS011;30544;42.196;24.336;2023-05-07T12:11:54;5.20;;;3.45;;
26375;SDS011;30544;42.196;24.336;2023-05-07T12:14:21;7.00;;;3.13;;
26375;SDS011;30544;42.196;24.336;2023-05-07T12:16:47;11.48;;;3.40;;
26375;SDS011;30544;42.196;24.336;2023-05-07T12:19:16;7.78;;;3.10;;
26375;SDS011;30544;42.196;24.336;2023-05-07T12:21:43;7.20;;;3.40;;
26375;SDS011;30544;42.196;24.336;2023-05-07T12:24:09;7.18;;;3.20;;
26375;SDS011;30544;42.196;24.336;2023-05-07T12:26:37;5.00;;;3.42;;
26375;SDS011;30544;42.196;24.336;2023-05-07T12:29:04;7.13;;;3.42;;
26375;SDS011;30544;42.196;24.336;2023-05-07T12:31:30;7.10;;;3.17;;
26375;SDS011;30544;42.196;24.336;2023-05-07T12:33:57;13.60;;;3.67;;
26375;SDS011;30544;42.196;24.336;2023-05-07T12:36:25;4.88;;;3.45;;
26375;SDS011;30544;42.196;24.336;2023-05-07T12:38:51;6.72;;;3.40;;
26375;SDS011;30544;42.196;24.336;2023-05-07T12:41:20;6.78;;;3.33;;
26375;SDS011;30544;42.196;24.336;2023-05-07T12:43:51;7.07;;;3.50;;
26375;SDS011;30544;42.196;24.336;2023-05-07T12:46:22;5.47;;;3.47;;
26375;SDS011;30544;42.196;24.336;2023-05-07T12:48:48;14.27;;;3.40;;
26375;SDS011;30544;42.196;24.336;2023-05-07T12:51:15;6.43;;;3.10;;
26375;SDS011;30544;42.196;24.336;2023-05-07T12:53:43;5.15;;;3.38;;
26375;SDS011;30544;42.196;24.336;2023-05-07T12:56:09;5.18;;;3.58;;
26375;SDS011;30544;42.196;24.336;2023-05-07T12:58:36;5.30;;;3.10;;
26375;SDS011;30544;42.196;24.336;2023-05-07T13:01:04;7.28;;;3.90;;
26375;SDS011;30544;42.196;24.336;2023-05-07T13:03:31;6.35;;;3.28;;
26375;SDS011;30544;42.196;24.336;2023-05-07T13:05:59;7.45;;;3.40;;
26375;SDS011;30544;42.196;24.336;2023-05-07T13:08:26;7.03;;;3.50;;
26375;SDS011;30544;42.196;24.336;2023-05-07T13:10:54;8.95;;;3.40;;
26375;SDS011;30544;42.196;24.336;2023-05-07T13:13:20;8.90;;;3.88;;
26375;SDS011;30544;42.196;24.336;2023-05-07T13:15:47;9.95;;;3.28;;
26375;SDS011;30544;42.196;24.336;2023-05-07T13:18:14;5.07;;;3.42;;
26375;SDS011;30544;42.196;24.336;2023-05-07T13:20:40;5.97;;;3.42;;
26375;SDS011;30544;42.196;24.336;2023-05-07T13:23:07;8.50;;;3.05;;
26375;SDS011;30544;42.196;24.336;2023-05-07T13:25:33;4.60;;;3.30;;
26375;SDS011;30544;42.196;24.336;2023-05-07T13:28:01;5.28;;;3.60;;
26375;SDS011;30544;42.196;24.336;2023-05-07T13:30:29;8.68;;;3.58;;
26375;SDS011;30544;42.196;24.336;2023-05-07T13:32:56;5.90;;;3.45;;
26375;SDS011;30544;42.196;24.336;2023-05-07T13:35:22;8.27;;;3.65;;
26375;SDS011;30544;42.196;24.336;2023-05-07T13:37:49;6.85;;;3.50;;
26375;SDS011;30544;42.196;24.336;2023-05-07T13:40:17;4.05;;;3.20;;
26375;SDS011;30544;42.196;24.336;2023-05-07T13:42:43;7.18;;;3.20;;
26375;SDS011;30544;42.196;24.336;2023-05-07T13:45:11;8.35;;;3.88;;
26375;SDS011;30544;42.196;24.336;2023-05-07T13:47:39;6.32;;;3.60;;
26375;SDS011;30544;42.196;24.336;2023-05-07T13:50:06;8.15;;;3.53;;
26375;SDS011;30544;42.196;24.336;2023-05-07T13:52:32;7.72;;;3.47;;
26375;SDS011;30544;42.196;24.336;2023-05-07T13:54:59;9.23;;;3.63;;
26375;SDS011;30544;42.196;24.336;2023-05-07T13:57:25;8.32;;;3.25;;
26375;SDS011;30544;42.196;24.336;2023-05-07T13:59:52;9.60;;;3.83;;
26375;SDS011;30544;42.196;24.336;2023-05-07T14:02:20;9.90;;;3.35;;
26375;SDS011;30544;42.196;24.336;2023-05-07T14:04:46;6.95;;;3.90;;
26375;SDS011;30544;42.196;24.336;2023-05-07T14:07:13;7.75;;;3.15;;
26375;SDS011;30544;42.196;24.336;2023-05-07T14:09:40;7.40;;;3.40;;
26375;SDS011;30544;42.196;24.336;2023-05-07T14:12:06;5.18;;;2.83;;
26375;SDS011;30544;42.196;24.336;2023-05-07T14:14:33;6.57;;;3.33;;
26375;SDS011;30544;42.196;24.336;2023-05-07T14:16:59;7.20;;;3.42;;
26375;SDS011;30544;42.196;24.336;2023-05-07T14:19:27;7.30;;;3.38;;
26375;SDS011;30544;42.196;24.336;2023-05-07T14:21:54;6.93;;;3.47;;
26375;SDS011;30544;42.196;24.336;2023-05-07T14:24:20;8.85;;;3.20;;
26375;SDS011;30544;42.196;24.336;2023-05-07T14:26:47;5.32;;;3.38;;
26375;SDS011;30544;42.196;24.336;2023-05-07T14:29:13;5.75;;;3.50;;
26375;SDS011;30544;42.196;24.336;2023-05-07T14:31:43;10.75;;;3.60;;
26375;SDS011;30544;42.196;24.336;2023-05-07T14:34:10;5.03;;;3.30;;
26375;SDS011;30544;42.196;24.336;2023-05-07T14:36:38;8.70;;;3.55;;
26375;SDS011;30544;42.196;24.336;2023-05-07T14:39:04;4.70;;;3.30;;